Time;durP1;ratioP1;P1;durP2;ratioP2;P2;SDS_P1;SDS_P2;PMS_P1;PMS_P2;Temp;Humidity;BMP_temperature;BMP_pressure;BME280_temperature;BME280_humidity;BME280_pressure;Samples;Min_cycle;Max_cycle;Signal;HPM_P1;HPM_P2
2021/05/31 00:00:06;;;;;;;1.65;0.50;;;19.60;58.80;19.40;99614.00;;;;341087;28;92406;-89
2021/05/31 00:00:18;;;;;;;1.63;0.52;;;19.60;59.00;19.60;99615.00;;;;341637;28;83257;-89
2021/05/31 00:00:30;;;;;;;1.65;0.57;;;19.50;58.80;19.50;99617.00;;;;339908;28;90284;-89
2021/05/31 00:00:42;;;;;;;1.63;0.60;;;19.50;59.10;19.50;99616.00;;;;342971;28;83266;-89
2021/05/31 00:00:54;;;;;;;2.20;0.57;;;19.50;59.10;19.50;99617.00;;;;338291;28;89766;-89
2021/05/31 00:01:06;;;;;;;3.70;0.70;;;19.50;58.90;19.50;99620.00;;;;337099;28;83711;-88
2021/05/31 00:01:17;;;;;;;3.67;0.70;;;19.50;58.90;19.50;99618.00;;;;341203;28;89669;-88
2021/05/31 00:01:29;;;;;;;3.35;0.80;;;19.50;59.00;19.50;99616.00;;;;338749;28;83993;-89
2021/05/31 00:01:41;;;;;;;1.77;0.60;;;19.50;59.10;19.50;99614.00;;;;341125;28;88472;-89
2021/05/31 00:01:53;;;;;;;2.10;0.60;;;19.50;59.30;19.40;99624.00;;;;338761;28;83456;-89
2021/05/31 00:02:05;;;;;;;2.20;0.60;;;19.50;59.50;19.50;99622.00;;;;338579;28;88290;-89
2021/05/31 00:02:17;;;;;;;1.85;0.50;;;19.50;59.00;19.50;99620.00;;;;340231;28;83490;-89
2021/05/31 00:02:29;;;;;;;1.05;0.40;;;19.50;58.90;19.50;99610.00;;;;341310;28;89467;-89
2021/05/31 00:02:43;;;;;;;1.95;0.40;;;19.50;58.90;19.60;99615.00;;;;338918;28;83436;-89
2021/05/31 00:02:55;;;;;;;1.88;0.40;;;19.50;58.80;19.60;99608.00;;;;339841;28;88823;-89
2021/05/31 00:03:06;;;;;;;0.98;0.45;;;19.50;58.90;19.70;99609.00;;;;336326;28;83314;-89
2021/05/31 00:03:18;;;;;;;1.02;0.40;;;19.50;59.00;19.60;99613.00;;;;339640;28;89877;-88
2021/05/31 00:03:30;;;;;;;1.40;0.60;;;19.50;59.10;19.50;99615.00;;;;338854;28;83298;-89
2021/05/31 00:03:42;;;;;;;1.95;0.75;;;19.50;59.20;19.40;99615.00;;;;338540;28;88129;-88
2021/05/31 00:03:54;;;;;;;1.90;0.82;;;19.50;59.40;19.50;99616.00;;;;339907;28;82571;-89
2021/05/31 00:04:06;;;;;;;1.77;0.70;;;19.50;59.30;19.40;99619.00;;;;339772;28;89412;-89
2021/05/31 00:04:18;;;;;;;1.40;0.60;;;19.50;59.40;19.30;99609.00;;;;338176;28;83487;-89
2021/05/31 00:04:30;;;;;;;2.10;0.60;;;19.40;59.40;19.40;99611.00;;;;337135;28;92816;-88
2021/05/31 00:04:42;;;;;;;1.95;0.50;;;19.40;59.10;19.30;99617.00;;;;340249;28;82319;-89
2021/05/31 00:04:53;;;;;;;1.77;0.60;;;19.40;59.10;19.40;99615.00;;;;339742;28;93587;-89
2021/05/31 00:05:06;;;;;;;1.70;0.60;;;19.40;59.00;19.40;99612.00;;;;339070;28;83395;-90
2021/05/31 00:05:22;;;;;;;1.50;0.60;;;19.40;59.70;19.50;99610.00;;;;341126;28;91746;-89
2021/05/31 00:05:34;;;;;;;1.20;0.50;;;19.40;59.00;19.50;99616.00;;;;340355;28;83312;-89
2021/05/31 00:05:46;;;;;;;1.42;0.38;;;19.40;59.10;19.50;99616.00;;;;338709;28;89648;-89
2021/05/31 00:05:58;;;;;;;1.50;0.50;;;19.40;59.00;19.50;99612.00;;;;340274;28;82422;-89
2021/05/31 00:06:10;;;;;;;2.00;0.70;;;19.40;59.20;19.30;99613.00;;;;338518;28;89916;-89
2021/05/31 00:06:22;;;;;;;2.95;0.70;;;19.40;59.80;19.10;99613.00;;;;338780;28;84223;-88
2021/05/31 00:06:58;;;;;;;3.00;0.65;;;19.40;59.60;19.20;99611.00;;;;339969;28;89448;-89
2021/05/31 00:07:12;;;;;;;2.67;0.50;;;19.40;59.70;19.20;99611.00;;;;341400;28;83185;-89
2021/05/31 00:07:24;;;;;;;2.70;0.52;;;19.30;60.00;19.30;99611.00;;;;340993;28;93858;-89
2021/05/31 00:07:36;;;;;;;2.30;0.57;;;19.30;59.60;19.30;99614.00;;;;340285;28;83438;-89
2021/05/31 00:07:48;;;;;;;1.42;0.55;;;19.30;59.40;19.50;99612.00;;;;341202;28;88449;-89
2021/05/31 00:08:00;;;;;;;1.45;0.60;;;19.30;59.40;19.40;99612.00;;;;341561;28;82788;-89
2021/05/31 00:08:12;;;;;;;1.60;0.60;;;19.30;59.70;19.30;99613.00;;;;338606;28;89551;-89
2021/05/31 00:08:24;;;;;;;1.50;0.80;;;19.30;59.70;19.10;99611.00;;;;338966;28;83445;-89
2021/05/31 00:08:36;;;;;;;1.85;0.80;;;19.30;59.90;19.30;99605.00;;;;338504;28;92226;-89
2021/05/31 00:08:48;;;;;;;1.60;0.65;;;19.30;59.40;19.30;99610.00;;;;341565;28;83464;-89
2021/05/31 00:09:00;;;;;;;1.40;0.43;;;19.30;59.40;19.30;99613.00;;;;339893;28;89343;-89
2021/05/31 00:09:12;;;;;;;1.70;0.40;;;19.30;59.40;19.40;99606.00;;;;338993;28;83103;-88
2021/05/31 00:09:23;;;;;;;1.80;0.35;;;19.30;59.40;19.40;99607.00;;;;339764;28;90666;-89
2021/05/31 00:09:37;;;;;;;0.93;0.40;;;19.30;59.40;19.40;99612.00;;;;341427;28;82669;-89
2021/05/31 00:09:54;;;;;;;1.40;0.50;;;19.40;59.30;19.40;99608.00;;;;339954;28;89821;-89
2021/05/31 00:10:09;;;;;;;1.67;0.50;;;19.30;59.40;19.20;99611.00;;;;339738;28;85711;-89
2021/05/31 00:10:22;;;;;;;1.27;0.30;;;19.40;59.80;19.20;99611.00;;;;339766;28;92834;-89
2021/05/31 00:10:35;;;;;;;0.90;0.38;;;19.30;60.40;19.10;99608.00;;;;338957;28;83368;-89
2021/05/31 00:10:46;;;;;;;0.95;0.40;;;19.30;60.00;19.10;99619.00;;;;339850;28;91181;-89
2021/05/31 00:11:00;;;;;;;1.48;0.50;;;19.30;60.00;19.20;99602.00;;;;340318;28;83391;-89
2021/05/31 00:11:11;;;;;;;1.40;0.50;;;19.30;59.70;19.30;99609.00;;;;339996;28;88657;-89
2021/05/31 00:11:23;;;;;;;1.48;0.50;;;19.30;59.40;19.30;99606.00;;;;340120;28;83766;-89
2021/05/31 00:11:35;;;;;;;1.90;0.50;;;19.30;59.40;19.30;99609.00;;;;341207;28;89722;-89
2021/05/31 00:11:47;;;;;;;1.77;0.45;;;19.30;59.60;19.30;99610.00;;;;340393;28;82174;-89
2021/05/31 00:11:59;;;;;;;2.35;0.50;;;19.30;59.40;19.40;99604.00;;;;337172;28;92910;-89
2021/05/31 00:12:16;;;;;;;2.38;0.50;;;19.30;59.40;19.30;99607.00;;;;341553;28;83515;-89
2021/05/31 00:12:28;;;;;;;9.68;0.68;;;19.30;59.40;19.40;99604.00;;;;338527;28;90100;-89
2021/05/31 00:12:40;;;;;;;10.13;0.68;;;19.30;59.40;19.30;99603.00;;;;337223;28;84161;-89
2021/05/31 00:12:52;;;;;;;10.23;0.70;;;19.30;59.50;19.30;99608.00;;;;337993;28;89127;-89
2021/05/31 00:13:04;;;;;;;1.42;0.43;;;19.30;59.60;19.20;99602.00;;;;339201;28;83447;-89
2021/05/31 00:13:16;;;;;;;0.70;0.40;;;19.30;59.70;19.20;99603.00;;;;338830;28;90131;-89
2021/05/31 00:13:28;;;;;;;0.80;0.50;;;19.30;59.60;19.10;99600.00;;;;341513;28;84979;-89
2021/05/31 00:13:40;;;;;;;1.05;0.45;;;19.30;59.60;19.10;99609.00;;;;339899;28;89346;-89
2021/05/31 00:13:52;;;;;;;1.13;0.38;;;19.30;59.70;19.00;99608.00;;;;341598;28;82475;-89
2021/05/31 00:14:05;;;;;;;1.23;0.40;;;19.20;59.80;18.90;99609.00;;;;339791;28;89506;-89
2021/05/31 00:14:17;;;;;;;0.90;0.40;;;19.20;60.10;19.00;99608.00;;;;341648;28;82708;-89
2021/05/31 00:14:29;;;;;;;1.10;0.47;;;19.20;60.00;19.20;99605.00;;;;341191;28;89578;-89
2021/05/31 00:14:41;;;;;;;1.00;0.38;;;19.20;59.80;19.20;99612.00;;;;340292;28;83327;-89
2021/05/31 00:14:53;;;;;;;1.02;0.40;;;19.20;59.80;19.20;99606.00;;;;342379;28;89866;-89
2021/05/31 00:15:07;;;;;;;1.20;0.50;;;19.20;59.70;19.10;99608.00;;;;342934;28;82456;-88
2021/05/31 00:15:19;;;;;;;1.30;0.60;;;19.20;60.00;19.10;99605.00;;;;339809;28;91624;-89
2021/05/31 00:15:31;;;;;;;1.77;0.60;;;19.20;59.90;19.00;99603.00;;;;338784;28;85534;-89
2021/05/31 00:15:43;;;;;;;2.75;0.52;;;19.20;59.90;19.10;99607.00;;;;339787;28;90826;-88
2021/05/31 00:15:55;;;;;;;2.83;0.50;;;19.20;59.80;19.10;99606.00;;;;341459;28;83260;-89
2021/05/31 00:16:07;;;;;;;1.90;0.60;;;19.20;59.70;19.10;99610.00;;;;342312;28;89920;-88
2021/05/31 00:16:19;;;;;;;1.95;0.57;;;19.20;59.70;19.10;99606.00;;;;341588;28;83372;-89
2021/05/31 00:16:31;;;;;;;1.80;0.50;;;19.20;60.00;19.10;99610.00;;;;341224;28;89583;-89
2021/05/31 00:16:43;;;;;;;1.35;0.40;;;19.10;59.60;19.20;99601.00;;;;342838;28;83985;-90
2021/05/31 00:16:55;;;;;;;1.30;0.40;;;19.20;59.60;19.20;99600.00;;;;341180;28;89110;-89
2021/05/31 00:17:07;;;;;;;0.80;0.35;;;19.20;59.70;19.20;99616.00;;;;340308;28;82559;-90
2021/05/31 00:17:18;;;;;;;1.05;0.40;;;19.20;59.60;19.30;99613.00;;;;339933;28;90120;-89
2021/05/31 00:17:30;;;;;;;1.00;0.40;;;19.20;59.60;19.20;99609.00;;;;338784;28;85241;-89
2021/05/31 00:17:42;;;;;;;1.05;0.40;;;19.20;60.00;19.20;99609.00;;;;338528;28;90343;-89
2021/05/31 00:17:54;;;;;;;2.00;0.50;;;19.20;59.90;19.10;99604.00;;;;341670;28;83361;-89
2021/05/31 00:18:06;;;;;;;2.30;0.65;;;19.10;59.80;19.00;99605.00;;;;338404;28;89696;-89
2021/05/31 00:18:18;;;;;;;1.42;0.52;;;19.10;60.00;19.10;99605.00;;;;341660;28;83325;-89
2021/05/31 00:18:29;;;;;;;1.20;0.50;;;19.10;59.90;19.00;99606.00;;;;339533;28;92271;-88
2021/05/31 00:18:41;;;;;;;1.02;0.43;;;19.10;60.00;19.00;99602.00;;;;341537;28;83956;-89
2021/05/31 00:18:53;;;;;;;1.75;0.40;;;19.10;59.90;19.20;99604.00;;;;338139;28;89377;-89
2021/05/31 00:19:05;;;;;;;2.13;0.50;;;19.10;59.80;19.30;99601.00;;;;340054;28;84717;-89
2021/05/31 00:19:19;;;;;;;2.00;0.47;;;19.10;60.00;19.40;99605.00;;;;339729;28;89424;-88
2021/05/31 00:19:31;;;;;;;1.00;0.45;;;19.10;60.10;19.20;99606.00;;;;338751;28;83611;-89
2021/05/31 00:19:43;;;;;;;1.33;0.38;;;19.10;60.10;19.10;99609.00;;;;339756;28;92339;-89
2021/05/31 00:19:54;;;;;;;1.52;0.38;;;19.20;60.40;19.10;99603.00;;;;341503;28;82250;-89
2021/05/31 00:20:08;;;;;;;1.65;0.50;;;19.20;60.00;19.10;99613.00;;;;342562;28;89442;-89
2021/05/31 00:20:20;;;;;;;1.60;0.60;;;19.10;60.10;19.20;99605.00;;;;340254;28;83352;-89
2021/05/31 00:20:32;;;;;;;1.60;0.50;;;19.10;59.90;19.20;99604.00;;;;338555;28;90092;-89
2021/05/31 00:20:44;;;;;;;1.98;0.40;;;19.10;59.80;19.20;99606.00;;;;341581;28;82667;-89
2021/05/31 00:20:56;;;;;;;1.75;0.47;;;19.10;59.80;19.20;99607.00;;;;339861;28;89924;-89
2021/05/31 00:21:08;;;;;;;1.50;0.40;;;19.20;59.90;19.20;99605.00;;;;340207;28;82712;-89
2021/05/31 00:21:19;;;;;;;1.20;0.50;;;19.20;59.80;19.20;99607.00;;;;342187;28;89492;-87
2021/05/31 00:21:32;;;;;;;1.70;0.45;;;19.20;59.90;19.30;99603.00;;;;341397;28;84346;-89
2021/05/31 00:21:43;;;;;;;1.58;0.47;;;19.20;59.80;19.20;99604.00;;;;342214;28;90822;-89
2021/05/31 00:21:55;;;;;;;1.38;0.40;;;19.20;60.00;19.20;99608.00;;;;341393;28;85230;-89
2021/05/31 00:22:07;;;;;;;0.82;0.40;;;19.20;59.90;19.20;99603.00;;;;339833;28;91596;-89
2021/05/31 00:22:23;;;;;;;1.30;0.40;;;19.20;59.80;19.30;99606.00;;;;340731;28;83462;-89
2021/05/31 00:22:35;;;;;;;2.30;0.40;;;19.20;60.00;19.20;99606.00;;;;341181;28;89221;-89
2021/05/31 00:22:46;;;;;;;2.45;0.45;;;19.20;60.00;19.00;99610.00;;;;341397;28;82397;-89
2021/05/31 00:22:58;;;;;;;2.20;0.60;;;19.20;60.40;19.00;99614.00;;;;340013;28;89049;-89
2021/05/31 00:23:10;;;;;;;1.48;0.60;;;19.20;60.80;19.00;99605.00;;;;340218;28;82437;-89
2021/05/31 00:23:22;;;;;;;1.25;0.40;;;19.20;60.90;19.00;99614.00;;;;338368;28;91222;-88
2021/05/31 00:23:34;;;;;;;1.40;0.35;;;19.10;60.60;19.00;99609.00;;;;338874;28;83308;-88
2021/05/31 00:23:46;;;;;;;1.25;0.47;;;19.10;60.40;18.90;99607.00;;;;338376;28;93735;-89
2021/05/31 00:23:58;;;;;;;1.10;0.50;;;19.10;60.60;18.80;99606.00;;;;341598;28;83354;-89
2021/05/31 00:24:10;;;;;;;1.38;0.55;;;19.10;60.60;18.90;99607.00;;;;338649;28;89009;-89
2021/05/31 00:24:22;;;;;;;1.48;0.50;;;19.10;60.40;19.10;99610.00;;;;338623;28;83445;-88
2021/05/31 00:24:33;;;;;;;1.70;0.50;;;19.10;60.20;19.20;99613.00;;;;339929;28;89657;-89
2021/05/31 00:24:47;;;;;;;2.17;0.40;;;19.10;60.20;19.30;99610.00;;;;338870;28;83278;-89
2021/05/31 00:24:59;;;;;;;2.35;0.55;;;19.10;60.30;19.30;99614.00;;;;338329;28;88015;-89
2021/05/31 00:25:11;;;;;;;1.65;0.60;;;19.10;60.10;19.30;99614.00;;;;338844;28;85392;-89
2021/05/31 00:25:24;;;;;;;3.35;0.60;;;19.10;59.90;19.20;99604.00;;;;339706;28;90035;-89
2021/05/31 00:25:36;;;;;;;3.85;0.68;;;19.10;59.80;19.10;99611.00;;;;337574;28;83477;-89
2021/05/31 00:25:48;;;;;;;3.60;0.50;;;19.10;59.80;19.00;99611.00;;;;341067;28;90962;-89
2021/05/31 00:26:00;;;;;;;0.88;0.40;;;19.10;60.00;19.10;99608.00;;;;340151;28;83454;-89
2021/05/31 00:26:15;;;;;;;0.70;0.30;;;19.10;60.00;19.10;99608.00;;;;338559;28;91070;-89
2021/05/31 00:26:27;;;;;;;0.82;0.30;;;19.10;60.00;19.10;99608.00;;;;341507;28;83474;-89
2021/05/31 00:26:38;;;;;;;1.70;0.30;;;19.10;60.00;19.10;99612.00;;;;339534;28;89667;-88
2021/05/31 00:26:51;;;;;;;3.10;0.30;;;19.10;60.50;19.00;99606.00;;;;340264;28;83396;-89
2021/05/31 00:27:03;;;;;;;2.90;0.30;;;19.10;60.40;19.10;99612.00;;;;338641;28;88680;-89
2021/05/31 00:27:15;;;;;;;1.63;0.30;;;19.10;60.10;19.20;99606.00;;;;342961;28;83248;-88
2021/05/31 00:27:27;;;;;;;1.25;0.40;;;19.10;59.90;19.20;99610.00;;;;339782;28;91149;-89
2021/05/31 00:27:39;;;;;;;1.67;0.40;;;19.10;60.60;19.30;99607.00;;;;338908;28;83376;-89
2021/05/31 00:27:51;;;;;;;1.98;0.45;;;19.10;59.90;19.20;99604.00;;;;340406;28;90913;-89
2021/05/31 00:28:03;;;;;;;2.30;0.40;;;19.10;60.10;19.20;99611.00;;;;340754;28;84030;-88
2021/05/31 00:28:15;;;;;;;2.38;0.38;;;19.00;60.40;19.10;99609.00;;;;342371;28;92469;-88
2021/05/31 00:28:26;;;;;;;2.17;0.30;;;19.00;60.90;19.10;99609.00;;;;339014;28;82336;-89
2021/05/31 00:28:38;;;;;;;1.50;0.40;;;19.00;60.30;19.10;99609.00;;;;341105;28;92071;-88
2021/05/31 00:28:50;;;;;;;1.10;0.50;;;19.00;60.30;19.10;99611.00;;;;341337;28;84242;-88
2021/05/31 00:29:02;;;;;;;1.20;0.50;;;19.00;60.20;19.10;99607.00;;;;339641;28;92628;-88
2021/05/31 00:29:15;;;;;;;1.80;0.60;;;19.00;60.10;19.10;99615.00;;;;341540;28;83408;-89
2021/05/31 00:29:28;;;;;;;2.03;0.50;;;19.00;60.20;19.00;99605.00;;;;341114;28;90843;-89
2021/05/31 00:29:39;;;;;;;1.65;0.40;;;19.00;60.10;19.10;99608.00;;;;339004;28;82769;-89
2021/05/31 00:29:51;;;;;;;1.27;0.40;;;19.00;60.10;19.00;99609.00;;;;339754;28;88723;-88
2021/05/31 00:30:05;;;;;;;1.20;0.40;;;19.00;60.10;19.00;99608.00;;;;340146;28;83383;-89
2021/05/31 00:30:22;;;;;;;1.33;0.40;;;19.00;60.10;19.10;99610.00;;;;338651;28;88334;-89
2021/05/31 00:30:34;;;;;;;1.05;0.40;;;19.00;60.00;19.10;99611.00;;;;341542;28;85670;-89
2021/05/31 00:30:45;;;;;;;0.95;0.50;;;19.00;59.90;19.00;99606.00;;;;338465;28;89424;-88
2021/05/31 00:30:57;;;;;;;1.00;0.50;;;19.00;60.40;19.00;99607.00;;;;341119;28;83855;-88
2021/05/31 00:31:11;;;;;;;1.10;0.50;;;19.00;60.50;18.90;99603.00;;;;341184;28;89633;-89
2021/05/31 00:31:23;;;;;;;2.15;0.50;;;19.00;60.50;18.90;99603.00;;;;341405;28;83939;-87
2021/05/31 00:31:35;;;;;;;2.22;0.50;;;19.00;60.40;18.80;99599.00;;;;341137;28;90930;-88
2021/05/31 00:31:47;;;;;;;1.17;0.50;;;19.00;60.50;18.70;99606.00;;;;340075;28;85293;-89
2021/05/31 00:31:59;;;;;;;0.93;0.35;;;18.90;60.50;18.90;99605.00;;;;339864;28;91014;-90
2021/05/31 00:32:11;;;;;;;1.20;0.30;;;18.90;60.60;19.00;99605.00;;;;344586;28;83125;-88
2021/05/31 00:32:23;;;;;;;1.10;0.30;;;18.90;60.40;19.10;99607.00;;;;340092;28;89427;-89
2021/05/31 00:32:35;;;;;;;1.30;0.30;;;19.00;60.40;19.20;99609.00;;;;340608;28;82647;-89
2021/05/31 00:32:48;;;;;;;1.75;0.40;;;19.00;60.70;19.10;99607.00;;;;341180;28;89536;-89
2021/05/31 00:33:00;;;;;;;1.80;0.50;;;19.00;60.80;19.00;99595.00;;;;343229;28;83276;-89
2021/05/31 00:33:12;;;;;;;1.65;0.50;;;19.00;60.90;18.90;99609.00;;;;341585;28;90726;-90
2021/05/31 00:33:24;;;;;;;2.00;0.50;;;19.00;60.90;18.90;99602.00;;;;340418;28;82684;-88
2021/05/31 00:33:35;;;;;;;2.90;0.43;;;19.00;61.00;19.00;99604.00;;;;341370;28;89744;-89
2021/05/31 00:33:47;;;;;;;3.65;0.65;;;19.00;60.60;19.00;99604.00;;;;340781;28;83960;-89
2021/05/31 00:33:59;;;;;;;2.58;0.70;;;19.00;60.50;19.00;99600.00;;;;339721;28;91708;-89
2021/05/31 00:34:12;;;;;;;3.42;0.60;;;19.00;60.70;18.90;99598.00;;;;340464;28;84046;-89
2021/05/31 00:34:25;;;;;;;2.83;0.40;;;19.00;60.80;18.90;99607.00;;;;341346;28;89077;-88
2021/05/31 00:34:37;;;;;;;2.08;0.40;;;19.00;60.90;18.90;99603.00;;;;340243;28;84282;-89
2021/05/31 00:34:49;;;;;;;1.15;0.40;;;19.00;60.90;18.90;99602.00;;;;339889;28;91120;-89
2021/05/31 00:35:01;;;;;;;1.30;0.45;;;19.00;60.70;19.00;99602.00;;;;339333;28;83338;-89
2021/05/31 00:35:14;;;;;;;1.48;0.55;;;19.00;60.70;19.00;99597.00;;;;340109;28;90143;-89
2021/05/31 00:35:26;;;;;;;3.22;0.60;;;19.00;60.40;18.90;99600.00;;;;341633;28;83423;-89
2021/05/31 00:35:38;;;;;;;3.33;0.63;;;19.00;60.60;18.90;99599.00;;;;337434;28;89372;-88
2021/05/31 00:35:50;;;;;;;2.33;0.60;;;19.00;61.00;18.90;99602.00;;;;340432;28;82780;-89
2021/05/31 00:36:02;;;;;;;1.33;0.50;;;18.90;61.20;18.70;99604.00;;;;338734;28;90648;-89
2021/05/31 00:36:16;;;;;;;1.10;0.40;;;18.90;61.20;18.60;99603.00;;;;340325;28;82694;-89
2021/05/31 00:36:28;;;;;;;1.02;0.40;;;18.90;61.10;18.40;99599.00;;;;341410;28;89819;-89
2021/05/31 00:36:40;;;;;;;1.23;0.40;;;18.80;61.20;18.30;99604.00;;;;339104;28;82621;-88
2021/05/31 00:36:52;;;;;;;1.20;0.30;;;18.80;61.20;18.40;99598.00;;;;338422;28;88247;-89
2021/05/31 00:37:05;;;;;;;1.15;0.38;;;18.80;61.10;18.50;99599.00;;;;340896;28;83593;-89
2021/05/31 00:37:16;;;;;;;1.20;0.40;;;18.80;61.10;18.60;99599.00;;;;339130;28;89809;-89
2021/05/31 00:37:28;;;;;;;1.27;0.40;;;18.80;61.00;18.60;99607.00;;;;340380;28;82728;-89
2021/05/31 00:37:40;;;;;;;2.80;0.50;;;18.80;60.90;18.70;99603.00;;;;341388;28;89745;-89
2021/05/31 00:37:56;;;;;;;2.70;0.55;;;18.80;60.80;18.70;99607.00;;;;340260;28;82559;-88
2021/05/31 00:38:08;;;;;;;2.30;0.63;;;18.80;61.10;18.70;99607.00;;;;341326;28;90482;-89
2021/05/31 00:38:20;;;;;;;2.20;0.60;;;18.80;61.10;18.80;99608.00;;;;341811;28;82401;-89
2021/05/31 00:38:32;;;;;;;2.55;0.50;;;18.80;61.00;18.80;99599.00;;;;340988;28;90281;-88
2021/05/31 00:38:44;;;;;;;4.10;0.52;;;18.80;61.10;18.70;99602.00;;;;341652;28;82535;-88
2021/05/31 00:38:56;;;;;;;4.40;0.60;;;18.80;61.50;18.50;99598.00;;;;338954;28;88645;-88
2021/05/31 00:39:07;;;;;;;3.90;0.55;;;18.70;61.40;18.70;99603.00;;;;339119;28;85421;-89
2021/05/31 00:39:20;;;;;;;1.73;0.60;;;18.70;61.30;18.90;99595.00;;;;340155;28;89139;-89
2021/05/31 00:39:32;;;;;;;2.42;0.68;;;18.80;61.30;18.90;99604.00;;;;343144;28;82748;-88
2021/05/31 00:39:44;;;;;;;2.38;0.57;;;18.80;61.30;18.90;99601.00;;;;341118;28;90674;-88
2021/05/31 00:39:55;;;;;;;1.50;0.52;;;18.80;61.10;19.00;99605.00;;;;341215;28;82405;-88
2021/05/31 00:40:09;;;;;;;1.48;0.57;;;18.80;61.20;19.00;99608.00;;;;337319;28;92454;-89
2021/05/31 00:40:21;;;;;;;1.48;0.50;;;18.80;61.20;19.10;99604.00;;;;338711;28;83329;-89
2021/05/31 00:40:33;;;;;;;2.63;0.60;;;18.80;61.10;18.90;99603.00;;;;340146;28;89047;-89
2021/05/31 00:40:45;;;;;;;2.95;0.50;;;18.80;61.20;18.80;99596.00;;;;338983;28;84401;-89
2021/05/31 00:40:57;;;;;;;2.42;0.52;;;18.80;61.20;18.80;99600.00;;;;339937;28;88632;-88
2021/05/31 00:41:09;;;;;;;1.33;0.50;;;18.80;61.10;18.80;99599.00;;;;340419;28;83392;-89
2021/05/31 00:41:22;;;;;;;1.65;0.50;;;18.80;61.00;18.80;99593.00;;;;337454;28;89470;-89
2021/05/31 00:41:33;;;;;;;1.88;0.45;;;18.90;60.90;18.80;99595.00;;;;339018;28;83665;-88
2021/05/31 00:41:48;;;;;;;1.52;0.40;;;18.80;60.90;18.80;99597.00;;;;337501;28;88682;-89
2021/05/31 00:42:00;;;;;;;2.30;0.40;;;18.80;61.20;18.80;99596.00;;;;339031;28;83855;-89
2021/05/31 00:42:12;;;;;;;2.50;0.40;;;18.80;61.00;18.80;99598.00;;;;338755;28;89038;-89
2021/05/31 00:42:24;;;;;;;2.47;0.43;;;18.80;61.00;18.90;99601.00;;;;341793;28;82506;-89
2021/05/31 00:42:37;;;;;;;1.33;0.50;;;18.80;61.00;18.80;99601.00;;;;340135;28;89352;-88
2021/05/31 00:42:49;;;;;;;1.20;0.50;;;18.80;61.20;19.00;99602.00;;;;341272;28;83935;-89
2021/05/31 00:43:01;;;;;;;1.25;0.55;;;18.80;61.20;19.00;99601.00;;;;338628;28;91334;-88
2021/05/31 00:43:13;;;;;;;1.30;0.55;;;18.80;61.10;19.00;99597.00;;;;339152;28;83253;-89
2021/05/31 00:43:29;;;;;;;1.35;0.60;;;18.80;60.90;19.10;99602.00;;;;339939;28;91483;-88
2021/05/31 00:43:41;;;;;;;2.40;0.93;;;18.90;61.10;19.00;99612.00;;;;340311;28;84045;-89
2021/05/31 00:43:53;;;;;;;4.07;1.10;;;18.90;60.90;18.80;99604.00;;;;340817;28;89458;-89
2021/05/31 00:44:05;;;;;;;4.28;0.90;;;18.80;61.40;18.80;99602.00;;;;339062;28;83605;-89
2021/05/31 00:44:18;;;;;;;3.15;0.50;;;18.90;61.50;18.80;99602.00;;;;339997;28;90883;-89
2021/05/31 00:44:30;;;;;;;1.95;0.40;;;18.80;61.30;18.80;99605.00;;;;339083;28;83293;-89
2021/05/31 00:44:42;;;;;;;1.00;0.32;;;18.80;61.20;18.70;99604.00;;;;340061;28;89434;-89
2021/05/31 00:44:54;;;;;;;0.80;0.30;;;18.80;61.70;18.70;99604.00;;;;341712;28;83383;-89
2021/05/31 00:45:07;;;;;;;1.10;0.40;;;18.80;61.90;18.70;99598.00;;;;340122;28;90018;-88
2021/05/31 00:45:19;;;;;;;2.58;0.60;;;18.80;61.70;18.80;99605.00;;;;341640;28;83407;-89
2021/05/31 00:45:31;;;;;;;6.07;0.70;;;18.80;61.30;18.80;99600.00;;;;340038;28;89465;-88
2021/05/31 00:45:42;;;;;;;5.93;0.60;;;18.80;61.30;18.80;99596.00;;;;337513;28;83854;-89
2021/05/31 00:45:54;;;;;;;2.30;0.40;;;18.80;61.20;18.90;99601.00;;;;341100;28;89729;-89
2021/05/31 00:46:07;;;;;;;1.35;0.52;;;18.80;61.20;18.90;99598.00;;;;340180;28;82441;-89
2021/05/31 00:46:20;;;;;;;2.40;0.80;;;18.80;61.20;18.70;99605.00;;;;339836;28;93637;-88
2021/05/31 00:46:32;;;;;;;2.50;0.80;;;18.80;61.60;18.70;99598.00;;;;339098;28;83325;-88
2021/05/31 00:46:44;;;;;;;2.28;0.65;;;18.80;61.80;18.90;99599.00;;;;340006;28;91074;-89
2021/05/31 00:46:57;;;;;;;3.13;0.63;;;18.80;61.70;18.80;99599.00;;;;338982;28;85570;-88
2021/05/31 00:47:09;;;;;;;2.95;0.63;;;18.80;61.70;18.90;99604.00;;;;341523;28;88725;-89
2021/05/31 00:47:21;;;;;;;1.40;0.60;;;18.80;61.50;18.90;99604.00;;;;340536;28;82420;-89
2021/05/31 00:47:33;;;;;;;2.33;0.88;;;18.80;61.60;18.80;99599.00;;;;340072;28;90000;-89
2021/05/31 00:47:45;;;;;;;2.28;0.80;;;18.80;61.80;18.80;99605.00;;;;341558;28;84164;-89
2021/05/31 00:47:58;;;;;;;1.88;0.80;;;18.80;61.90;18.80;99597.00;;;;341314;28;92275;-88
2021/05/31 00:48:10;;;;;;;1.70;0.70;;;18.80;61.60;18.80;99597.00;;;;340436;28;82495;-89
2021/05/31 00:48:23;;;;;;;2.30;0.52;;;18.80;61.70;18.70;99597.00;;;;340001;28;91893;-88
2021/05/31 00:48:38;;;;;;;3.00;0.50;;;18.80;61.90;18.90;99602.00;;;;341783;28;83368;-88
2021/05/31 00:48:50;;;;;;;3.13;0.50;;;18.80;62.30;18.70;99603.00;;;;339487;28;90836;-89
2021/05/31 00:49:02;;;;;;;2.90;0.55;;;18.80;62.00;18.60;99607.00;;;;339025;28;83211;-89
2021/05/31 00:49:20;;;;;;;1.65;0.50;;;18.80;62.30;18.70;99605.00;;;;341294;28;92780;-89
2021/05/31 00:49:36;;;;;;;1.30;0.38;;;18.80;62.10;18.70;99601.00;;;;339052;28;82498;-89
2021/05/31 00:49:48;;;;;;;2.67;0.52;;;18.80;62.10;18.70;99601.00;;;;339936;28;89557;-89
2021/05/31 00:50:00;;;;;;;2.85;0.75;;;18.80;62.00;18.80;99601.00;;;;340291;28;85586;-89
2021/05/31 00:50:12;;;;;;;2.03;0.70;;;18.80;62.00;18.80;99596.00;;;;338648;28;92955;-89
2021/05/31 00:50:24;;;;;;;1.30;0.70;;;18.80;62.00;18.70;99600.00;;;;341526;28;82505;-88
2021/05/31 00:50:36;;;;;;;2.65;0.60;;;18.70;62.40;18.70;99603.00;;;;341374;28;90511;-88
2021/05/31 00:50:47;;;;;;;2.90;0.60;;;18.70;62.20;18.70;99604.00;;;;341707;28;83382;-89
2021/05/31 00:51:01;;;;;;;1.98;0.68;;;18.70;62.10;18.50;99602.00;;;;341300;28;92627;-89
2021/05/31 00:51:13;;;;;;;2.15;0.70;;;18.70;62.20;18.30;99602.00;;;;341723;28;83408;-89
2021/05/31 00:51:25;;;;;;;2.53;0.60;;;18.70;62.00;18.20;99601.00;;;;340067;28;89412;-89
2021/05/31 00:51:37;;;;;;;2.58;0.50;;;18.70;61.80;18.20;99596.00;;;;339005;28;84015;-89
2021/05/31 00:51:49;;;;;;;2.25;0.50;;;18.60;61.50;18.20;99597.00;;;;340150;28;89440;-89
2021/05/31 00:52:02;;;;;;;1.20;0.50;;;18.60;61.30;18.20;99606.00;;;;340234;28;83417;-89
2021/05/31 00:52:15;;;;;;;1.60;0.60;;;18.50;61.10;18.40;99603.00;;;;341351;28;89204;-89
2021/05/31 00:52:27;;;;;;;1.27;0.50;;;18.60;61.10;18.60;99605.00;;;;340505;28;83395;-88
2021/05/31 00:52:39;;;;;;;1.17;0.40;;;18.60;61.20;18.70;99600.00;;;;341364;28;90495;-88
2021/05/31 00:52:52;;;;;;;0.85;0.30;;;18.60;61.60;18.80;99596.00;;;;338942;28;83566;-89
2021/05/31 00:53:04;;;;;;;0.93;0.43;;;18.60;61.60;18.70;99605.00;;;;341378;28;89067;-89
2021/05/31 00:53:16;;;;;;;1.20;0.55;;;18.60;61.30;18.40;99599.00;;;;340396;28;83740;-89
2021/05/31 00:53:28;;;;;;;1.55;0.90;;;18.60;61.60;18.30;99605.00;;;;338796;28;88594;-89
2021/05/31 00:53:40;;;;;;;1.33;0.80;;;18.60;61.70;18.30;99593.00;;;;341814;28;82774;-89
2021/05/31 00:53:52;;;;;;;2.28;0.73;;;18.60;61.80;18.20;99600.00;;;;339926;28;91007;-88
2021/05/31 00:54:04;;;;;;;1.98;0.40;;;18.50;61.60;18.20;99600.00;;;;340203;28;84232;-89
2021/05/31 00:54:18;;;;;;;2.22;0.50;;;18.50;61.60;18.30;99603.00;;;;338710;28;91394;-89
2021/05/31 00:54:29;;;;;;;1.73;0.50;;;18.50;61.50;18.30;99594.00;;;;340490;28;83370;-88
2021/05/31 00:54:41;;;;;;;1.70;0.40;;;18.50;61.70;18.20;99606.00;;;;340029;28;90775;-89
2021/05/31 00:54:53;;;;;;;1.50;0.40;;;18.50;61.70;18.30;99605.00;;;;339570;28;83449;-88
2021/05/31 00:55:06;;;;;;;2.08;1.10;;;18.50;61.80;18.40;99602.00;;;;340915;28;90537;-88
2021/05/31 00:55:17;;;;;;;2.03;1.00;;;18.50;61.60;18.40;99601.00;;;;340203;28;83443;-89
2021/05/31 00:55:29;;;;;;;3.75;1.10;;;18.50;61.50;18.40;99606.00;;;;340125;28;88002;-89
2021/05/31 00:55:41;;;;;;;2.95;0.50;;;18.50;61.40;18.40;99605.00;;;;340428;28;82470;-89